Time;durP1;ratioP1;P1;durP2;ratioP2;P2;SDS_P1;SDS_P2;PMS_P1;PMS_P2;Temp;Humidity;BMP_temperature;BMP_pressure;BME280_temperature;BME280_humidity;BME280_pressure;Samples;Min_cycle;Max_cycle;Signal;HPM_P1;HPM_P2
2022/09/27 00:01:37;;;;;;;;;;;13.20;99.90;;;;;;4248150;27;19912;-61
2022/09/27 00:03:38;;;;;;;;;;;13.20;99.90;;;;;;4247714;27;19907;-60
2022/09/27 00:05:39;;;;;;;;;;;13.20;99.90;;;;;;4248510;27;20007;-61
2022/09/27 00:07:40;;;;;;;;;;;13.20;99.90;;;;;;4238187;27;20264;-59
2022/09/27 00:09:41;;;;;;;;;;;13.20;99.90;;;;;;4238259;27;19911;-61
2022/09/27 00:11:42;;;;;;;;;;;13.20;99.90;;;;;;4234263;27;19923;-60
2022/09/27 00:13:44;;;;;;;;;;;13.20;99.90;;;;;;4234340;27;19969;-61
2022/09/27 00:15:45;;;;;;;;;;;13.20;99.90;;;;;;4231341;27;19916;-61
2022/09/27 00:17:50;;;;;;;;;;;13.20;99.90;;;;;;4230837;28;19961;-61
2022/09/27 00:19:51;;;;;;;;;;;13.20;99.90;;;;;;4233281;27;20359;-60
2022/09/27 00:21:52;;;;;;;;;;;13.10;99.90;;;;;;4233502;27;20360;-61
2022/09/27 00:23:53;;;;;;;;;;;13.10;99.90;;;;;;4239294;27;19917;-61
2022/09/27 00:25:55;;;;;;;;;;;13.10;99.90;;;;;;4247612;27;19911;-60
2022/09/27 00:27:56;;;;;;;;;;;13.10;99.90;;;;;;4240302;27;19968;-60
2022/09/27 00:29:57;;;;;;;;;;;13.10;99.90;;;;;;4247352;27;19911;-60
2022/09/27 00:31:58;;;;;;;;;;;13.10;99.90;;;;;;4247687;27;20263;-61
2022/09/27 00:34:00;;;;;;;;;;;13.10;99.90;;;;;;4247190;27;20252;-59
2022/09/27 00:36:04;;;;;;;;;;;13.10;99.90;;;;;;4247289;27;19907;-62
2022/09/27 00:38:05;;;;;;;;;;;13.10;99.90;;;;;;4236416;27;20838;-61
2022/09/27 00:40:07;;;;;;;;;;;13.10;99.90;;;;;;4230752;28;19911;-61
2022/09/27 00:42:09;;;;;;;;;;;13.10;99.90;;;;;;4229707;28;19912;-62
2022/09/27 00:44:28;;;;;;;;;;;13.10;99.90;;;;;;4235419;27;19958;-62
2022/09/27 00:46:41;;;;;;;;;;;13.20;99.90;;;;;;4212888;28;19909;-61
2022/09/27 00:48:42;;;;;;;;;;;13.10;99.90;;;;;;4239020;27;19916;-61
2022/09/27 00:50:43;;;;;;;;;;;13.10;99.90;;;;;;4242826;27;19912;-61
2022/09/27 00:52:47;;;;;;;;;;;13.20;99.90;;;;;;4230593;28;19920;-62
2022/09/27 00:54:50;;;;;;;;;;;13.20;99.90;;;;;;4229567;28;19980;-61
2022/09/27 00:56:52;;;;;;;;;;;13.20;99.90;;;;;;4230489;28;19915;-60
2022/09/27 00:58:59;;;;;;;;;;;13.20;99.90;;;;;;4233443;27;19912;-61
2022/09/27 01:01:03;;;;;;;;;;;13.20;99.90;;;;;;4230574;28;19957;-61
2022/09/27 01:03:04;;;;;;;;;;;13.20;99.90;;;;;;4229378;28;20331;-61
2022/09/27 01:05:07;;;;;;;;;;;13.20;99.90;;;;;;4235082;27;19915;-61
2022/09/27 01:07:08;;;;;;;;;;;13.20;99.90;;;;;;4246351;27;19960;-61
2022/09/27 01:09:10;;;;;;;;;;;13.20;99.90;;;;;;4247022;27;19911;-62
2022/09/27 01:11:17;;;;;;;;;;;13.20;99.90;;;;;;4246319;27;19907;-61
2022/09/27 01:13:29;;;;;;;;;;;13.20;99.90;;;;;;4246784;27;20428;-62
2022/09/27 01:15:44;;;;;;;;;;;13.20;99.90;;;;;;4246589;27;19911;-59
2022/09/27 01:17:57;;;;;;;;;;;13.20;99.90;;;;;;4246769;27;19957;-60
2022/09/27 01:20:17;;;;;;;;;;;13.20;99.90;;;;;;4246357;27;19912;-61
2022/09/27 01:22:41;;;;;;;;;;;13.20;99.90;;;;;;4229778;27;19946;-61
2022/09/27 01:24:53;;;;;;;;;;;13.20;99.90;;;;;;4223188;28;19953;-56
2022/09/27 01:27:04;;;;;;;;;;;13.20;99.90;;;;;;4230069;28;19911;-60
2022/09/27 01:29:23;;;;;;;;;;;13.20;99.90;;;;;;4228954;28;19907;-61
2022/09/27 01:31:45;;;;;;;;;;;13.20;99.90;;;;;;4230066;28;20400;-61
2022/09/27 01:33:55;;;;;;;;;;;13.10;99.90;;;;;;4229095;28;19919;-61
2022/09/27 01:36:09;;;;;;;;;;;13.10;99.90;;;;;;4230063;28;19957;-61
2022/09/27 01:38:10;;;;;;;;;;;13.10;99.90;;;;;;4228898;27;19953;-60
2022/09/27 01:40:17;;;;;;;;;;;13.20;99.90;;;;;;4237277;27;19912;-58
2022/09/27 01:42:26;;;;;;;;;;;13.10;99.90;;;;;;4227897;27;19912;-60
2022/09/27 01:44:38;;;;;;;;;;;13.20;99.90;;;;;;4232894;27;19915;-60
2022/09/27 01:46:44;;;;;;;;;;;13.20;99.90;;;;;;4230073;27;20000;-59
2022/09/27 01:48:47;;;;;;;;;;;13.10;99.90;;;;;;4232035;27;19968;-60
2022/09/27 01:51:08;;;;;;;;;;;13.00;99.90;;;;;;4229940;27;19911;-59
2022/09/27 01:53:27;;;;;;;;;;;13.00;99.90;;;;;;4229936;27;19932;-60
2022/09/27 01:55:31;;;;;;;;;;;13.00;99.90;;;;;;4238244;27;19915;-60
2022/09/27 01:57:39;;;;;;;;;;;13.00;99.90;;;;;;4240967;27;19927;-60
2022/09/27 01:59:43;;;;;;;;;;;12.90;99.90;;;;;;4242880;27;20431;-61
2022/09/27 02:01:47;;;;;;;;;;;12.90;99.90;;;;;;4240994;27;19911;-60
2022/09/27 02:03:49;;;;;;;;;;;12.90;99.90;;;;;;4243836;27;19967;-62
2022/09/27 02:05:52;;;;;;;;;;;12.90;99.90;;;;;;4246514;27;20329;-61
2022/09/27 02:08:00;;;;;;;;;;;12.90;99.90;;;;;;4239589;27;19972;-61
2022/09/27 02:10:04;;;;;;;;;;;12.80;99.90;;;;;;4230400;27;19920;-61
2022/09/27 02:12:09;;;;;;;;;;;12.80;99.90;;;;;;4242554;27;19907;-60
2022/09/27 02:14:23;;;;;;;;;;;12.80;99.90;;;;;;4246032;27;19919;-60
2022/09/27 02:16:33;;;;;;;;;;;12.70;99.90;;;;;;4245222;27;19915;-61
2022/09/27 02:19:00;;;;;;;;;;;12.70;99.90;;;;;;4246071;27;19915;-60
2022/09/27 02:21:04;;;;;;;;;;;12.70;99.90;;;;;;4213331;27;19963;-60
2022/09/27 02:23:14;;;;;;;;;;;12.60;99.90;;;;;;4246211;27;19908;-61
2022/09/27 02:25:27;;;;;;;;;;;12.60;99.90;;;;;;4233068;27;20007;-61
2022/09/27 02:27:35;;;;;;;;;;;12.70;99.90;;;;;;4228518;28;19919;-60
2022/09/27 02:29:38;;;;;;;;;;;12.60;99.90;;;;;;4227641;28;20481;-60
2022/09/27 02:31:39;;;;;;;;;;;12.60;99.90;;;;;;4228959;28;20318;-59
2022/09/27 02:33:49;;;;;;;;;;;12.70;99.90;;;;;;4232303;27;19924;-62
2022/09/27 02:35:50;;;;;;;;;;;12.70;99.90;;;;;;4229104;28;19965;-62
2022/09/27 02:37:51;;;;;;;;;;;12.70;99.90;;;;;;4229192;27;19923;-62
2022/09/27 02:39:52;;;;;;;;;;;12.70;99.90;;;;;;4238663;27;20691;-61
2022/09/27 02:41:57;;;;;;;;;;;12.70;99.90;;;;;;4245409;27;19904;-62
2022/09/27 02:43:59;;;;;;;;;;;12.70;99.90;;;;;;4243472;27;19912;-61
2022/09/27 02:46:03;;;;;;;;;;;12.80;99.90;;;;;;4239963;27;19937;-61
2022/09/27 02:48:07;;;;;;;;;;;12.70;99.90;;;;;;4244513;27;19941;-60
2022/09/27 02:50:11;;;;;;;;;;;12.80;99.90;;;;;;4245728;27;19915;-62
2022/09/27 02:52:19;;;;;;;;;;;12.80;99.90;;;;;;4244322;27;19907;-61
2022/09/27 02:54:25;;;;;;;;;;;12.80;99.90;;;;;;4245480;27;19924;-61
2022/09/27 02:56:33;;;;;;;;;;;12.70;99.90;;;;;;4244695;28;19912;-60
2022/09/27 02:58:41;;;;;;;;;;;12.70;99.90;;;;;;4241454;28;19969;-60
2022/09/27 03:00:45;;;;;;;;;;;12.70;99.90;;;;;;4229446;28;19916;-60
2022/09/27 03:03:04;;;;;;;;;;;12.70;99.90;;;;;;4240449;28;20337;-60
2022/09/27 03:05:07;;;;;;;;;;;12.80;99.90;;;;;;4244682;28;19956;-61
2022/09/27 03:07:08;;;;;;;;;;;12.70;99.90;;;;;;4240318;28;19937;-60
2022/09/27 03:09:28;;;;;;;;;;;12.80;99.90;;;;;;4232806;28;20330;-60
2022/09/27 03:11:29;;;;;;;;;;;12.70;99.90;;;;;;4228624;28;19953;-60
2022/09/27 03:13:30;;;;;;;;;;;12.70;99.90;;;;;;4227494;28;19970;-62
2022/09/27 03:15:31;;;;;;;;;;;12.80;99.90;;;;;;4228492;28;19957;-61
2022/09/27 03:17:32;;;;;;;;;;;12.80;99.90;;;;;;4238729;28;19917;-61
2022/09/27 03:19:33;;;;;;;;;;;12.80;99.90;;;;;;4245722;28;20026;-63
2022/09/27 03:21:34;;;;;;;;;;;12.80;99.90;;;;;;4230092;28;20010;-60
2022/09/27 03:23:35;;;;;;;;;;;12.80;99.90;;;;;;4228707;28;20003;-60
2022/09/27 03:25:36;;;;;;;;;;;12.80;99.90;;;;;;4227476;28;20235;-61
2022/09/27 03:27:37;;;;;;;;;;;12.80;99.90;;;;;;4241193;28;20006;-61
2022/09/27 03:29:38;;;;;;;;;;;12.70;99.90;;;;;;4228929;28;19912;-61
2022/09/27 03:31:39;;;;;;;;;;;12.70;99.90;;;;;;4243150;28;20395;-60
2022/09/27 03:33:40;;;;;;;;;;;12.60;99.90;;;;;;4228288;28;19989;-61
2022/09/27 03:35:41;;;;;;;;;;;12.60;99.90;;;;;;4227485;28;19920;-61
2022/09/27 03:37:43;;;;;;;;;;;12.60;99.90;;;;;;4229645;28;19912;-61
2022/09/27 03:39:44;;;;;;;;;;;12.50;99.90;;;;;;4239996;28;19911;-60
2022/09/27 03:41:46;;;;;;;;;;;12.60;99.90;;;;;;4243569;28;20359;-60
2022/09/27 03:43:47;;;;;;;;;;;12.60;99.90;;;;;;4241524;28;19912;-62
2022/09/27 03:45:47;;;;;;;;;;;12.60;99.90;;;;;;4227829;28;20746;-60
2022/09/27 03:47:48;;;;;;;;;;;12.60;99.90;;;;;;4226943;28;20370;-61
2022/09/27 03:49:49;;;;;;;;;;;12.60;99.90;;;;;;4228304;28;20314;-62
2022/09/27 03:51:50;;;;;;;;;;;12.60;99.90;;;;;;4239761;28;20435;-61
2022/09/27 03:53:51;;;;;;;;;;;12.50;99.90;;;;;;4236982;28;20280;-65
2022/09/27 03:55:52;;;;;;;;;;;12.60;99.90;;;;;;4231826;28;19916;-64
2022/09/27 03:57:53;;;;;;;;;;;12.50;99.90;;;;;;4233136;28;19927;-64
2022/09/27 03:59:54;;;;;;;;;;;12.50;99.90;;;;;;4235852;28;20267;-63
2022/09/27 04:01:55;;;;;;;;;;;12.50;99.90;;;;;;4234688;28;19916;-63
2022/09/27 04:03:56;;;;;;;;;;;12.50;99.90;;;;;;4234229;28;21901;-63
2022/09/27 04:05:59;;;;;;;;;;;12.50;99.90;;;;;;4227390;27;19928;-62
2022/09/27 04:08:00;;;;;;;;;;;12.60;99.90;;;;;;4226129;28;19912;-56
2022/09/27 04:10:01;;;;;;;;;;;12.60;99.90;;;;;;4225176;28;19915;-58
2022/09/27 04:12:02;;;;;;;;;;;12.60;99.90;;;;;;4238006;27;19957;-62
2022/09/27 04:14:04;;;;;;;;;;;12.60;99.90;;;;;;4229390;27;19976;-64
2022/09/27 04:16:06;;;;;;;;;;;12.60;99.90;;;;;;4230308;27;19967;-63
2022/09/27 04:18:07;;;;;;;;;;;12.60;99.90;;;;;;4232561;27;20245;-65
2022/09/27 04:20:09;;;;;;;;;;;12.60;99.90;;;;;;4231970;27;19970;-62
2022/09/27 04:22:11;;;;;;;;;;;12.60;99.90;;;;;;4228802;28;20333;-61
2022/09/27 04:24:12;;;;;;;;;;;12.60;99.90;;;;;;4245414;27;19919;-64
2022/09/27 04:26:13;;;;;;;;;;;12.60;99.90;;;;;;4229481;28;20265;-63
2022/09/27 04:28:14;;;;;;;;;;;12.60;99.90;;;;;;4229701;28;20362;-63
2022/09/27 04:30:15;;;;;;;;;;;12.60;99.90;;;;;;4229694;28;19908;-62
2022/09/27 04:32:16;;;;;;;;;;;12.60;99.90;;;;;;4229902;28;20672;-64
2022/09/27 04:36:25;;;;;;;;;;;12.60;99.90;;;;;;4229452;28;19927;-62
2022/09/27 04:36:38;;;;;;;;;;;12.60;99.90;;;;;;4230041;28;19912;-63
2022/09/27 04:38:39;;;;;;;;;;;12.60;99.90;;;;;;4229602;28;20553;-61
2022/09/27 04:40:40;;;;;;;;;;;12.60;99.90;;;;;;4228624;27;19965;-63
2022/09/27 04:42:41;;;;;;;;;;;12.60;99.90;;;;;;4229766;28;19961;-63
2022/09/27 04:44:42;;;;;;;;;;;12.60;99.90;;;;;;4228541;27;20359;-63
2022/09/27 04:46:43;;;;;;;;;;;12.60;99.90;;;;;;4229972;27;19920;-62
2022/09/27 04:48:44;;;;;;;;;;;12.60;99.90;;;;;;4229955;27;20448;-65
2022/09/27 04:50:45;;;;;;;;;;;12.60;99.90;;;;;;4229084;28;19953;-62
2022/09/27 04:52:53;;;;;;;;;;;12.60;99.90;;;;;;4229131;28;19976;-63
2022/09/27 04:54:53;;;;;;;;;;;12.60;99.90;;;;;;4230391;28;20409;-63
2022/09/27 04:56:54;;;;;;;;;;;12.60;99.90;;;;;;4229006;28;19924;-63
2022/09/27 04:58:55;;;;;;;;;;;12.60;99.90;;;;;;4230322;28;19937;-62
2022/09/27 05:00:56;;;;;;;;;;;12.60;99.90;;;;;;4229138;28;19957;-63
2022/09/27 05:02:57;;;;;;;;;;;12.60;99.90;;;;;;4230462;28;20324;-61
2022/09/27 05:04:59;;;;;;;;;;;12.60;99.90;;;;;;4229241;28;19908;-63
2022/09/27 05:07:00;;;;;;;;;;;12.60;99.90;;;;;;4229843;28;19916;-63
2022/09/27 05:09:01;;;;;;;;;;;12.60;99.90;;;;;;4229163;28;19908;-63
2022/09/27 05:11:02;;;;;;;;;;;12.60;99.90;;;;;;4228860;28;20318;-62
2022/09/27 05:13:03;;;;;;;;;;;12.60;99.90;;;;;;4227594;27;20363;-67
2022/09/27 05:15:04;;;;;;;;;;;12.60;99.90;;;;;;4224369;27;20007;-62
2022/09/27 05:17:06;;;;;;;;;;;12.60;99.90;;;;;;4236586;27;19911;-63
2022/09/27 05:19:07;;;;;;;;;;;12.60;99.90;;;;;;4238494;27;20396;-63
2022/09/27 05:21:08;;;;;;;;;;;12.60;99.90;;;;;;4228510;27;19927;-63
2022/09/27 05:23:09;;;;;;;;;;;12.60;99.90;;;;;;4228303;28;19927;-66
2022/09/27 05:25:10;;;;;;;;;;;12.60;99.90;;;;;;4227991;28;19955;-64
2022/09/27 05:27:17;;;;;;;;;;;12.60;99.90;;;;;;4227907;28;19998;-63
2022/09/27 05:29:18;;;;;;;;;;;12.70;99.90;;;;;;4229191;28;19912;-64
2022/09/27 05:31:19;;;;;;;;;;;12.70;99.90;;;;;;4227426;28;20322;-64
2022/09/27 05:33:20;;;;;;;;;;;12.70;99.90;;;;;;4223779;28;19982;-63
2022/09/27 05:35:21;;;;;;;;;;;12.70;99.90;;;;;;4226968;27;19957;-62
2022/09/27 05:37:22;;;;;;;;;;;12.70;99.90;;;;;;4227902;27;19908;-63
2022/09/27 05:39:23;;;;;;;;;;;12.70;99.90;;;;;;4228395;28;20298;-64
2022/09/27 05:41:25;;;;;;;;;;;12.70;99.90;;;;;;4227189;28;20003;-63
2022/09/27 05:43:27;;;;;;;;;;;12.70;99.90;;;;;;4228196;28;19930;-62
2022/09/27 05:45:28;;;;;;;;;;;12.80;99.90;;;;;;4225502;28;19920;-65
2022/09/27 05:47:29;;;;;;;;;;;12.80;99.90;;;;;;4212207;28;19908;-63
2022/09/27 05:49:30;;;;;;;;;;;12.90;99.90;;;;;;4213610;28;19953;-62
2022/09/27 05:51:31;;;;;;;;;;;13.00;99.90;;;;;;4229512;28;19961;-66
2022/09/27 05:53:32;;;;;;;;;;;13.10;99.90;;;;;;4227875;28;20329;-64
2022/09/27 05:55:33;;;;;;;;;;;13.10;99.90;;;;;;4229410;28;19908;-66
2022/09/27 05:57:34;;;;;;;;;;;13.10;99.90;;;;;;4227073;28;20575;-63
2022/09/27 05:59:35;;;;;;;;;;;13.20;99.90;;;;;;4229628;28;19911;-62
2022/09/27 06:01:36;;;;;;;;;;;13.20;99.90;;;;;;4227578;28;19939;-62
2022/09/27 06:03:39;;;;;;;;;;;13.20;99.90;;;;;;4228869;28;19916;-65
2022/09/27 06:05:40;;;;;;;;;;;13.20;99.90;;;;;;4227105;28;19976;-64
2022/09/27 06:07:41;;;;;;;;;;;13.30;99.90;;;;;;4229215;28;19959;-64
2022/09/27 06:09:43;;;;;;;;;;;13.40;99.90;;;;;;4226586;28;20347;-62
2022/09/27 06:11:44;;;;;;;;;;;13.40;99.90;;;;;;4228139;28;19916;-63
2022/09/27 06:13:45;;;;;;;;;;;13.50;99.90;;;;;;4227981;28;19942;-61
2022/09/27 06:15:49;;;;;;;;;;;13.50;99.90;;;;;;4224867;28;19912;-61
2022/09/27 06:17:50;;;;;;;;;;;13.60;99.90;;;;;;4227603;28;19981;-63
2022/09/27 06:19:51;;;;;;;;;;;13.60;99.90;;;;;;4228380;27;19912;-61
2022/09/27 06:21:52;;;;;;;;;;;13.70;99.90;;;;;;4240823;27;19927;-63
2022/09/27 06:23:54;;;;;;;;;;;13.70;99.90;;;;;;4227481;27;19958;-63
2022/09/27 06:25:55;;;;;;;;;;;13.80;99.90;;;;;;4227745;28;19979;-61
2022/09/27 06:27:56;;;;;;;;;;;13.80;99.90;;;;;;4227875;28;20023;-65
2022/09/27 06:29:57;;;;;;;;;;;13.80;99.90;;;;;;4228894;28;19912;-62
2022/09/27 06:31:58;;;;;;;;;;;13.80;99.90;;;;;;4227537;27;19947;-61
2022/09/27 06:33:59;;;;;;;;;;;13.80;99.90;;;;;;4244379;27;20313;-62
2022/09/27 06:36:00;;;;;;;;;;;13.80;99.90;;;;;;4225079;27;19916;-65
2022/09/27 06:38:03;;;;;;;;;;;13.80;99.90;;;;;;4229141;27;20348;-60
2022/09/27 06:40:07;;;;;;;;;;;13.80;99.90;;;;;;4231496;27;19911;-62
2022/09/27 06:42:09;;;;;;;;;;;13.80;99.90;;;;;;4228359;28;19912;-62
2022/09/27 06:44:11;;;;;;;;;;;13.80;99.90;;;;;;4227629;28;19969;-61
2022/09/27 06:46:12;;;;;;;;;;;13.90;99.90;;;;;;4227843;28;20321;-61
2022/09/27 06:48:14;;;;;;;;;;;13.90;99.90;;;;;;4228408;28;19911;-62
2022/09/27 06:50:15;;;;;;;;;;;13.90;99.90;;;;;;4227995;28;20325;-62
2022/09/27 06:52:16;;;;;;;;;;;14.00;99.90;;;;;;4228712;28;19937;-63
2022/09/27 06:54:18;;;;;;;;;;;14.00;99.90;;;;;;4227696;28;19915;-62
2022/09/27 06:56:19;;;;;;;;;;;14.10;99.90;;;;;;4229787;28;20726;-63
2022/09/27 07:00:41;;;;;;;;;;;14.30;99.90;;;;;;4225206;28;19969;-62
2022/09/27 07:02:42;;;;;;;;;;;14.30;99.90;;;;;;4227335;28;19953;-62
2022/09/27 07:04:43;;;;;;;;;;;14.40;99.90;;;;;;4229027;28;19984;-61
2022/09/27 07:06:44;;;;;;;;;;;14.40;99.90;;;;;;4227508;28;20451;-63
2022/09/27 07:08:49;;;;;;;;;;;14.50;99.90;;;;;;4228032;28;19908;-63
2022/09/27 07:10:50;;;;;;;;;;;14.50;99.90;;;;;;4240053;28;19911;-60
2022/09/27 07:12:51;;;;;;;;;;;14.60;99.90;;;;;;4230193;28;19911;-60
2022/09/27 07:14:52;;;;;;;;;;;14.70;99.90;;;;;;4242068;28;19916;-62
2022/09/27 07:16:53;;;;;;;;;;;14.80;99.90;;;;;;4229461;28;19967;-60
2022/09/27 07:18:54;;;;;;;;;;;14.90;99.90;;;;;;4244425;28;19903;-63
2022/09/27 07:20:55;;;;;;;;;;;15.00;99.90;;;;;;4244917;28;19912;-61
2022/09/27 07:22:56;;;;;;;;;;;15.00;99.90;;;;;;4244448;27;19929;-62
2022/09/27 07:24:57;;;;;;;;;;;15.10;99.90;;;;;;4244264;27;20450;-62
2022/09/27 07:26:58;;;;;;;;;;;15.10;99.90;;;;;;4245079;28;19957;-61
2022/09/27 07:29:00;;;;;;;;;;;15.00;99.90;;;;;;4243902;28;19976;-60
2022/09/27 07:31:02;;;;;;;;;;;15.10;99.90;;;;;;4245593;28;19937;-61
2022/09/27 07:33:04;;;;;;;;;;;15.10;99.90;;;;;;4242282;27;19955;-62
2022/09/27 07:35:06;;;;;;;;;;;15.20;99.90;;;;;;4245843;28;20476;-61
2022/09/27 07:37:07;;;;;;;;;;;15.20;99.90;;;;;;4243467;27;19953;-62
2022/09/27 07:39:08;;;;;;;;;;;15.30;99.90;;;;;;4245277;28;20292;-63
2022/09/27 07:41:13;;;;;;;;;;;15.40;99.90;;;;;;4244210;28;19953;-61
2022/09/27 07:43:14;;;;;;;;;;;15.50;99.90;;;;;;4241883;28;19916;-60
2022/09/27 07:45:16;;;;;;;;;;;15.60;99.90;;;;;;4243112;27;19956;-61
2022/09/27 07:47:18;;;;;;;;;;;15.60;99.90;;;;;;4230128;28;19907;-61
2022/09/27 07:49:19;;;;;;;;;;;15.60;99.90;;;;;;4236071;27;20423;-62
2022/09/27 07:51:20;;;;;;;;;;;15.70;99.90;;;;;;4241004;27;19915;-59
2022/09/27 07:53:22;;;;;;;;;;;15.50;99.90;;;;;;4246532;27;19956;-61
2022/09/27 07:55:23;;;;;;;;;;;15.30;99.90;;;;;;4213076;28;19953;-60
2022/09/27 07:57:24;;;;;;;;;;;15.10;99.90;;;;;;4213915;28;20284;-62
2022/09/27 07:59:26;;;;;;;;;;;15.00;99.90;;;;;;4214777;28;19912;-62
2022/09/27 08:01:27;;;;;;;;;;;15.00;99.90;;;;;;4246515;27;19960;-62
2022/09/27 08:03:28;;;;;;;;;;;15.00;99.90;;;;;;4246553;27;19964;-61
2022/09/27 08:05:29;;;;;;;;;;;15.10;99.90;;;;;;4248173;27;20280;-61
2022/09/27 08:07:31;;;;;;;;;;;15.30;99.90;;;;;;4245099;27;19912;-60
2022/09/27 08:09:32;;;;;;;;;;;15.30;99.90;;;;;;4247778;27;19908;-61
2022/09/27 08:11:34;;;;;;;;;;;15.40;99.90;;;;;;4246615;27;20381;-61
2022/09/27 08:13:36;;;;;;;;;;;15.50;99.90;;;;;;4247730;27;19911;-61
2022/09/27 08:15:37;;;;;;;;;;;15.40;99.90;;;;;;4246745;27;19937;-61
2022/09/27 08:17:38;;;;;;;;;;;15.50;99.90;;;;;;4245810;27;20031;-61
2022/09/27 08:19:39;;;;;;;;;;;15.40;99.90;;;;;;4246916;27;19904;-62
2022/09/27 08:21:40;;;;;;;;;;;15.50;99.90;;;;;;4229022;27;19912;-62
2022/09/27 08:23:41;;;;;;;;;;;15.70;99.90;;;;;;4230248;28;19938;-61
2022/09/27 08:25:43;;;;;;;;;;;15.90;99.90;;;;;;4231146;27;19961;-61
2022/09/27 08:27:53;;;;;;;;;;;16.20;99.90;;;;;;4230452;28;19907;-61
2022/09/27 08:29:54;;;;;;;;;;;16.50;99.90;;;;;;4237746;27;19984;-62
2022/09/27 08:31:55;;;;;;;;;;;16.80;99.90;;;;;;4243836;27;19991;-62
2022/09/27 08:33:56;;;;;;;;;;;16.90;99.90;;;;;;4233614;27;19927;-62
2022/09/27 08:35:57;;;;;;;;;;;16.60;99.90;;;;;;4233296;27;19994;-64
2022/09/27 08:37:59;;;;;;;;;;;16.50;99.90;;;;;;4231719;27;19923;-62
2022/09/27 08:40:00;;;;;;;;;;;16.50;99.90;;;;;;4245439;27;19916;-61
2022/09/27 08:42:01;;;;;;;;;;;16.40;99.90;;;;;;4226987;28;20091;-62
2022/09/27 08:44:23;;;;;;;;;;;16.40;99.90;;;;;;4230566;28;19921;-62
2022/09/27 08:46:43;;;;;;;;;;;16.40;99.90;;;;;;4229430;28;20314;-62
2022/09/27 08:48:47;;;;;;;;;;;16.40;99.90;;;;;;4230108;28;19912;-63
2022/09/27 08:50:48;;;;;;;;;;;16.30;99.90;;;;;;4229426;28;19916;-63
2022/09/27 08:52:52;;;;;;;;;;;16.20;99.90;;;;;;4229911;28;19911;-63
2022/09/27 08:54:55;;;;;;;;;;;16.20;99.90;;;;;;4228936;28;19919;-65
2022/09/27 08:57:01;;;;;;;;;;;16.20;99.90;;;;;;4229450;28;19924;-61
2022/09/27 08:59:23;;;;;;;;;;;16.40;99.90;;;;;;4229115;28;19953;-65
2022/09/27 09:01:24;;;;;;;;;;;16.50;99.90;;;;;;4231365;27;19912;-67
2022/09/27 09:03:30;;;;;;;;;;;16.80;99.90;;;;;;4245955;27;19957;-62
2022/09/27 09:05:33;;;;;;;;;;;17.00;99.90;;;;;;4247519;27;19961;-61
2022/09/27 09:07:37;;;;;;;;;;;17.40;99.90;;;;;;4240692;27;19940;-62
2022/09/27 09:09:44;;;;;;;;;;;17.70;99.90;;;;;;4240763;27;19976;-63
2022/09/27 09:14:26;;;;;;;;;;;18.00;99.90;;;;;;4247453;27;20827;-62
2022/09/27 09:16:27;;;;;;;;;;;17.80;99.90;;;;;;4240295;27;19988;-62
2022/09/27 09:18:28;;;;;;;;;;;17.70;99.90;;;;;;4244831;27;19968;-63
2022/09/27 09:20:41;;;;;;;;;;;17.90;99.90;;;;;;4228782;28;19911;-62
2022/09/27 09:22:48;;;;;;;;;;;17.80;99.90;;;;;;4229943;28;19911;-61
2022/09/27 09:24:52;;;;;;;;;;;17.70;99.90;;;;;;4228834;28;19908;-61
2022/09/27 09:26:53;;;;;;;;;;;17.70;99.90;;;;;;4229921;28;19915;-62
2022/09/27 09:29:03;;;;;;;;;;;17.60;99.90;;;;;;4228859;28;20002;-62
2022/09/27 09:31:10;;;;;;;;;;;17.40;99.90;;;;;;4229715;28;19912;-62
2022/09/27 09:33:23;;;;;;;;;;;17.40;99.90;;;;;;4228477;28;20317;-62
2022/09/27 09:35:31;;;;;;;;;;;17.50;99.90;;;;;;4230014;28;19919;-62
2022/09/27 09:37:35;;;;;;;;;;;17.60;99.90;;;;;;4229748;27;19912;-63
2022/09/27 09:39:42;;;;;;;;;;;17.40;99.90;;;;;;4229102;28;19916;-62
2022/09/27 09:42:03;;;;;;;;;;;17.50;99.90;;;;;;4228588;28;20345;-62
2022/09/27 09:44:05;;;;;;;;;;;17.50;99.90;;;;;;4214717;28;19984;-62
2022/09/27 09:46:16;;;;;;;;;;;17.50;99.90;;;;;;4228464;28;19908;-63
2022/09/27 09:48:25;;;;;;;;;;;17.50;99.90;;;;;;4228863;28;19912;-62
2022/09/27 09:50:30;;;;;;;;;;;17.50;99.90;;;;;;4223383;27;19912;-63
2022/09/27 09:52:38;;;;;;;;;;;17.50;99.90;;;;;;4212571;28;19912;-71
2022/09/27 09:55:02;;;;;;;;;;;17.50;99.90;;;;;;4226703;28;19969;-64
2022/09/27 09:57:10;;;;;;;;;;;17.60;99.90;;;;;;4203565;28;19912;-67
2022/09/27 09:59:14;;;;;;;;;;;17.70;99.90;;;;;;4225139;28;19997;-58
2022/09/27 10:01:15;;;;;;;;;;;17.80;99.90;;;;;;4228878;28;19912;-64
2022/09/27 10:03:16;;;;;;;;;;;17.80;99.90;;;;;;4227936;28;19912;-63
2022/09/27 10:05:18;;;;;;;;;;;17.70;99.90;;;;;;4228341;28;19912;-62
2022/09/27 10:07:22;;;;;;;;;;;17.50;99.90;;;;;;4228292;28;19961;-61
2022/09/27 10:09:25;;;;;;;;;;;17.40;99.90;;;;;;4225766;28;20314;-64
2022/09/27 10:11:36;;;;;;;;;;;17.40;99.90;;;;;;4228878;28;19969;-65
2022/09/27 10:13:37;;;;;;;;;;;17.40;99.90;;;;;;4227253;28;20271;-62
2022/09/27 10:15:38;;;;;;;;;;;17.50;99.90;;;;;;4228373;28;19916;-62
2022/09/27 10:17:40;;;;;;;;;;;17.40;99.90;;;;;;4227007;28;19924;-63
2022/09/27 10:19:41;;;;;;;;;;;17.40;99.90;;;;;;4228369;28;19908;-62
2022/09/27 10:21:46;;;;;;;;;;;17.40;99.90;;;;;;4227556;28;19908;-73
2022/09/27 10:24:07;;;;;;;;;;;17.30;99.90;;;;;;4228530;28;19911;-65
2022/09/27 10:26:09;;;;;;;;;;;17.40;99.90;;;;;;4227362;28;19912;-64
2022/09/27 10:28:25;;;;;;;;;;;17.50;99.90;;;;;;4227407;28;19985;-63
2022/09/27 10:30:28;;;;;;;;;;;17.60;99.90;;;;;;4226813;28;19969;-64
2022/09/27 10:32:31;;;;;;;;;;;17.70;99.90;;;;;;4229215;28;19908;-65
2022/09/27 10:34:34;;;;;;;;;;;17.80;99.90;;;;;;4227120;28;19923;-68
2022/09/27 10:36:35;;;;;;;;;;;17.70;99.90;;;;;;4228511;28;19912;-68
2022/09/27 10:38:36;;;;;;;;;;;17.50;99.90;;;;;;4227869;28;19911;-66
2022/09/27 10:40:37;;;;;;;;;;;17.70;99.90;;;;;;4228532;28;20340;-62
2022/09/27 10:42:38;;;;;;;;;;;17.60;99.90;;;;;;4225938;28;19912;-63
2022/09/27 10:44:39;;;;;;;;;;;17.50;99.90;;;;;;4222273;28;19999;-63
2022/09/27 10:46:41;;;;;;;;;;;17.50;99.90;;;;;;4226928;28;19950;-63
2022/09/27 10:48:43;;;;;;;;;;;17.50;99.90;;;;;;4227430;28;19964;-63
2022/09/27 10:50:55;;;;;;;;;;;17.60;99.90;;;;;;4244259;27;19907;-64
2022/09/27 10:53:03;;;;;;;;;;;17.80;99.90;;;;;;4244716;27;19907;-61
2022/09/27 10:55:12;;;;;;;;;;;17.80;99.90;;;;;;4244363;27;19915;-63
2022/09/27 10:57:13;;;;;;;;;;;17.90;99.90;;;;;;4244401;27;19968;-62
2022/09/27 10:59:17;;;;;;;;;;;17.90;99.90;;;;;;4244555;28;19923;-62
2022/09/27 11:01:18;;;;;;;;;;;18.00;99.90;;;;;;4244576;27;19965;-62
2022/09/27 11:03:19;;;;;;;;;;;18.10;99.90;;;;;;4245160;28;19915;-62
2022/09/27 11:05:25;;;;;;;;;;;18.10;99.90;;;;;;4227075;27;19961;-61
2022/09/27 11:07:26;;;;;;;;;;;18.10;99.90;;;;;;4228325;28;19984;-62
2022/09/27 11:09:28;;;;;;;;;;;18.10;99.90;;;;;;4228643;28;19915;-63
2022/09/27 11:11:29;;;;;;;;;;;18.10;99.90;;;;;;4231112;28;19965;-62
2022/09/27 11:13:32;;;;;;;;;;;18.20;99.90;;;;;;4227250;28;19907;-63
2022/09/27 11:15:43;;;;;;;;;;;18.20;99.90;;;;;;4229515;28;19961;-62
2022/09/27 11:17:49;;;;;;;;;;;18.10;99.90;;;;;;4242482;28;20002;-63
2022/09/27 11:19:51;;;;;;;;;;;18.00;99.90;;;;;;4244859;27;20355;-62
2022/09/27 11:21:55;;;;;;;;;;;18.00;99.90;;;;;;4247605;27;19952;-62
2022/09/27 11:23:56;;;;;;;;;;;18.10;99.90;;;;;;4248797;27;19908;-63
2022/09/27 11:26:15;;;;;;;;;;;18.10;99.90;;;;;;4247510;27;20972;-61
2022/09/27 11:28:30;;;;;;;;;;;18.10;99.90;;;;;;4248461;27;19968;-62
2022/09/27 11:30:50;;;;;;;;;;;18.20;99.90;;;;;;4247310;27;19908;-62
2022/09/27 11:33:10;;;;;;;;;;;18.10;99.90;;;;;;4248613;27;20659;-62
2022/09/27 11:35:11;;;;;;;;;;;18.10;99.90;;;;;;4247926;27;19919;-62
2022/09/27 11:37:28;;;;;;;;;;;18.10;99.90;;;;;;4247980;27;20274;-62
2022/09/27 11:39:42;;;;;;;;;;;18.10;99.90;;;;;;4245614;27;19915;-62
2022/09/27 11:41:43;;;;;;;;;;;18.10;99.90;;;;;;4248349;27;19966;-62
2022/09/27 11:43:54;;;;;;;;;;;18.20;99.90;;;;;;4246352;27;19918;-63
2022/09/27 11:46:05;;;;;;;;;;;18.30;99.90;;;;;;4231663;28;20012;-62
2022/09/27 11:48:41;;;;;;;;;;;18.30;99.90;;;;;;4244568;27;19912;-62
2022/09/27 11:51:03;;;;;;;;;;;18.30;99.90;;;;;;4178835;28;20203;-61
2022/09/27 11:53:10;;;;;;;;;;;18.40;99.90;;;;;;4222268;27;19912;-63
2022/09/27 11:55:19;;;;;;;;;;;18.50;99.90;;;;;;4248025;27;19923;-63
2022/09/27 11:57:46;;;;;;;;;;;18.50;99.90;;;;;;4246834;27;19979;-63
2022/09/27 12:00:05;;;;;;;;;;;18.40;99.90;;;;;;4207663;27;19923;-65
2022/09/27 12:02:17;;;;;;;;;;;18.40;99.90;;;;;;4230101;28;19964;-63
2022/09/27 12:04:25;;;;;;;;;;;18.40;99.90;;;;;;4230470;28;19915;-63
2022/09/27 12:06:41;;;;;;;;;;;18.30;99.90;;;;;;4231019;28;19912;-64
2022/09/27 12:08:52;;;;;;;;;;;18.30;99.90;;;;;;4229927;28;19960;-61